Time;durP1;ratioP1;P1;durP2;ratioP2;P2;SDS_P1;SDS_P2;PMS_P1;PMS_P2;Temp;Humidity;BMP_temperature;BMP_pressure;BME280_temperature;BME280_humidity;BME280_pressure;Samples;Min_cycle;Max_cycle;Signal;HPM_P1;HPM_P2
2023/05/09 00:00:12;;;;;;;39.87;17.23;;;3.40;99.90;;;;;;4998842;28;20223;-87
2023/05/09 00:02:38;;;;;;;53.60;17.90;;;3.70;99.90;;;;;;5014339;28;20174;-88
2023/05/09 00:05:06;;;;;;;41.73;16.00;;;3.60;99.90;;;;;;5013085;28;20635;-87
2023/05/09 00:07:33;;;;;;;42.97;15.87;;;;;;;;;;5013158;28;20185;-87
2023/05/09 00:09:59;;;;;;;41.97;17.60;;;3.60;99.90;;;;;;5012788;28;20204;-87
2023/05/09 00:12:26;;;;;;;41.43;16.20;;;3.60;99.90;;;;;;5012883;28;20243;-87
2023/05/09 00:14:53;;;;;;;40.07;17.00;;;;;;;;;;4996382;28;20208;-87
2023/05/09 00:17:21;;;;;;;33.33;15.50;;;;;;;;;;5014087;28;20177;-87
2023/05/09 00:19:47;;;;;;;34.57;16.37;;;;;;;;;;5013630;28;20724;-87
2023/05/09 00:22:13;;;;;;;29.97;15.40;;;;;;;;;;5012532;28;20247;-87
2023/05/09 00:24:40;;;;;;;40.03;16.30;;;;;;;;;;5012110;28;20182;-87
2023/05/09 00:27:06;;;;;;;31.13;13.60;;;;;;;;;;5012426;28;20638;-87
2023/05/09 00:29:32;;;;;;;46.60;16.20;;;;;;;;;;5012641;28;20193;-86
2023/05/09 00:31:58;;;;;;;30.97;14.17;;;;;;;;;;4996124;28;20185;-87
2023/05/09 00:34:24;;;;;;;31.23;14.03;;;;;;;;;;5012463;28;20188;-87
2023/05/09 00:36:49;;;;;;;30.07;14.30;;;3.20;99.90;;;;;;5011728;28;20612;-85
2023/05/09 00:39:16;;;;;;;33.23;13.00;;;;;;;;;;5012440;28;20221;-87
2023/05/09 00:41:42;;;;;;;28.20;12.30;;;;;;;;;;5012428;28;20188;-86
2023/05/09 00:44:08;;;;;;;34.83;12.20;;;;;;;;;;5013189;28;20177;-85
2023/05/09 00:46:34;;;;;;;24.13;11.17;;;;;;;;;;5013463;28;20203;-86
2023/05/09 00:49:00;;;;;;;30.30;12.37;;;;;;;;;;4999410;28;20218;-88
2023/05/09 00:51:27;;;;;;;42.90;16.07;;;3.20;99.90;;;;;;5014994;28;20264;-88
2023/05/09 00:53:53;;;;;;;32.40;14.57;;;;;;;;;;5012304;28;20303;-87
2023/05/09 00:56:20;;;;;;;35.37;12.73;;;;;;;;;;4996182;28;20193;-87
2023/05/09 00:58:47;;;;;;;29.97;14.03;;;;;;;;;;5015809;28;20205;-87
2023/05/09 01:01:13;;;;;;;35.97;14.37;;;;;;;;;;5017531;28;20239;-87
2023/05/09 01:03:40;;;;;;;23.27;13.20;;;3.20;99.90;;;;;;5016203;28;20185;-87
2023/05/09 01:06:16;;;;;;;33.53;14.10;;;3.90;99.90;;;;;;5017417;28;20188;-87
2023/05/09 01:08:52;;;;;;;30.43;12.63;;;5.20;99.90;;;;;;5016171;28;20254;-87
2023/05/09 01:11:42;;;;;;;30.70;14.67;;;3.10;99.90;;;;;;5017506;28;20160;-87
2023/05/09 01:14:37;;;;;;;32.17;13.33;;;3.10;99.90;;;;;;5017348;28;20230;-87
2023/05/09 01:17:22;;;;;;;33.37;14.63;;;3.10;99.90;;;;;;5017268;28;20194;-86
2023/05/09 01:20:04;;;;;;;34.83;13.27;;;3.10;99.90;;;;;;5017180;28;20193;-86
2023/05/09 01:22:34;;;;;;;32.67;14.50;;;3.00;99.90;;;;;;5017296;28;20169;-86
2023/05/09 01:25:00;;;;;;;33.57;12.90;;;3.00;99.90;;;;;;5015795;28;20187;-86
2023/05/09 01:27:44;;;;;;;38.13;13.37;;;2.90;99.90;;;;;;5016883;28;20252;-87
2023/05/09 01:30:11;;;;;;;34.20;13.90;;;2.50;99.90;;;;;;5017211;28;20165;-87
2023/05/09 01:32:39;;;;;;;29.30;13.07;;;2.90;99.90;;;;;;5017098;28;20264;-87
2023/05/09 01:35:07;;;;;;;30.70;13.20;;;3.40;99.90;;;;;;5015599;28;20185;-85
2023/05/09 01:37:36;;;;;;;34.07;13.17;;;2.70;99.90;;;;;;5016767;28;20311;-86
2023/05/09 01:40:16;;;;;;;34.90;12.43;;;2.70;99.90;;;;;;5016631;28;20547;-86
2023/05/09 01:43:00;;;;;;;27.23;12.63;;;2.70;99.90;;;;;;5022380;28;20188;-85
2023/05/09 01:45:27;;;;;;;30.47;14.53;;;2.70;99.90;;;;;;5032598;28;20207;-84
2023/05/09 01:47:54;;;;;;;32.43;11.27;;;2.70;99.90;;;;;;5014537;28;20185;-85
2023/05/09 01:50:21;;;;;;;24.20;12.33;;;2.70;99.90;;;;;;5033948;28;20187;-85
2023/05/09 01:52:49;;;;;;;24.70;11.10;;;3.80;99.90;;;;;;5035063;28;20192;-85
2023/05/09 01:55:18;;;;;;;40.60;11.67;;;2.70;99.90;;;;;;5039946;28;20165;-84
2023/05/09 01:57:45;;;;;;;34.37;12.43;;;2.60;99.90;;;;;;5040721;28;20162;-84
2023/05/09 02:00:12;;;;;;;25.20;10.90;;;2.60;99.90;;;;;;5040758;28;20178;-85
2023/05/09 02:02:38;;;;;;;28.63;12.27;;;2.60;99.90;;;;;;5024348;28;20181;-85
2023/05/09 02:05:07;;;;;;;29.77;12.37;;;4.50;99.90;;;;;;5007324;28;20236;-85
2023/05/09 02:07:33;;;;;;;23.70;11.77;;;2.50;99.90;;;;;;5039958;28;20203;-85
2023/05/09 02:10:01;;;;;;;34.93;12.70;;;2.50;99.90;;;;;;5040240;28;20185;-85
2023/05/09 02:12:27;;;;;;;33.77;12.13;;;2.50;99.90;;;;;;5037319;28;20199;-85
2023/05/09 02:14:53;;;;;;;33.53;12.03;;;2.40;99.90;;;;;;5038438;28;20177;-85
2023/05/09 02:17:20;;;;;;;33.30;12.77;;;2.40;99.90;;;;;;5040603;28;20173;-85
2023/05/09 02:19:46;;;;;;;26.73;11.43;;;2.40;99.90;;;;;;5037735;28;20240;-84
2023/05/09 02:22:12;;;;;;;23.43;11.03;;;;;;;;;;5033253;28;20187;-85
2023/05/09 02:24:38;;;;;;;30.97;13.13;;;;;;;;;;5021354;28;20276;-85
2023/05/09 02:27:06;;;;;;;25.57;10.77;;;2.40;99.90;;;;;;5019537;28;20570;-85
2023/05/09 02:29:39;;;;;;;38.53;13.50;;;4.00;99.90;;;;;;5019334;28;20183;-85
2023/05/09 02:32:19;;;;;;;31.07;13.50;;;2.30;99.90;;;;;;5015805;28;20169;-85
2023/05/09 02:34:46;;;;;;;24.60;12.43;;;4.00;99.90;;;;;;5014801;28;20534;-85
2023/05/09 02:37:12;;;;;;;35.63;12.73;;;2.30;99.90;;;;;;4998238;28;20604;-85
2023/05/09 02:39:39;;;;;;;29.60;12.00;;;2.30;99.90;;;;;;5014477;28;20712;-86
2023/05/09 02:42:09;;;;;;;33.90;14.20;;;2.30;99.90;;;;;;5015405;28;20630;-85
2023/05/09 02:44:35;;;;;;;47.60;15.27;;;2.40;99.90;;;;;;5014717;28;20262;-85
2023/05/09 02:47:02;;;;;;;28.77;11.77;;;2.40;99.90;;;;;;5015568;28;20623;-86
2023/05/09 02:49:28;;;;;;;35.13;14.17;;;2.40;99.90;;;;;;5014358;28;20698;-85
2023/05/09 02:51:54;;;;;;;35.50;13.13;;;2.30;99.90;;;;;;4997896;28;20280;-86
2023/05/09 02:54:20;;;;;;;28.53;12.70;;;2.30;99.90;;;;;;5014545;28;20631;-86
2023/05/09 02:56:46;;;;;;;36.73;13.00;;;2.30;99.90;;;;;;5014661;28;20174;-86
2023/05/09 02:59:11;;;;;;;30.60;11.07;;;2.30;99.90;;;;;;5015246;28;20213;-85
2023/05/09 03:01:37;;;;;;;45.80;14.13;;;2.30;99.90;;;;;;5015462;28;20181;-85
2023/05/09 03:04:03;;;;;;;43.20;13.40;;;2.30;99.90;;;;;;4997432;28;20187;-85
2023/05/09 03:06:29;;;;;;;33.80;12.37;;;;;;;;;;4997612;28;20272;-85
2023/05/09 03:08:55;;;;;;;31.03;12.57;;;2.30;99.90;;;;;;5014974;28;20642;-85
2023/05/09 03:11:21;;;;;;;32.33;13.00;;;2.30;99.90;;;;;;5013827;28;20332;-85
2023/05/09 03:13:48;;;;;;;39.23;13.03;;;2.70;99.90;;;;;;5015117;28;20661;-84
2023/05/09 03:16:16;;;;;;;29.63;11.87;;;2.30;99.90;;;;;;5013905;28;20192;-85
2023/05/09 03:18:42;;;;;;;30.43;10.77;;;2.30;99.90;;;;;;5014025;28;20303;-85
2023/05/09 03:21:07;;;;;;;31.93;11.30;;;4.00;99.90;;;;;;5013206;28;20270;-86
2023/05/09 03:23:33;;;;;;;25.80;11.93;;;3.90;99.90;;;;;;5014058;28;20187;-86
2023/05/09 03:25:59;;;;;;;24.97;10.83;;;2.40;99.90;;;;;;5013536;28;20192;-84
2023/05/09 03:28:24;;;;;;;29.37;11.60;;;2.50;99.90;;;;;;5014926;28;20214;-86
2023/05/09 03:30:50;;;;;;;25.93;11.43;;;2.50;99.90;;;;;;5013572;28;20627;-87
2023/05/09 03:33:15;;;;;;;30.57;10.13;;;2.60;99.90;;;;;;5014593;28;20181;-86
2023/05/09 03:35:41;;;;;;;25.20;10.73;;;2.60;99.90;;;;;;4997007;28;20526;-86
2023/05/09 03:38:07;;;;;;;24.60;9.13;;;2.60;99.90;;;;;;4997202;28;20742;-87
2023/05/09 03:40:32;;;;;;;37.10;10.87;;;2.70;99.90;;;;;;4996954;28;20188;-86
2023/05/09 03:42:58;;;;;;;30.03;11.63;;;2.80;99.90;;;;;;5014703;28;20185;-87
2023/05/09 03:45:24;;;;;;;23.07;10.07;;;2.80;99.90;;;;;;4996904;28;20185;-87
2023/05/09 03:47:49;;;;;;;23.57;10.13;;;2.90;99.90;;;;;;4997030;28;20745;-86
2023/05/09 03:50:15;;;;;;;27.27;11.27;;;2.90;99.90;;;;;;5013149;28;20173;-86
2023/05/09 03:52:41;;;;;;;26.63;10.27;;;3.00;99.90;;;;;;5013456;28;20185;-87
2023/05/09 03:55:07;;;;;;;25.73;10.27;;;3.10;99.90;;;;;;4996471;28;20181;-87
2023/05/09 03:57:34;;;;;;;25.27;9.50;;;3.20;99.90;;;;;;5014286;28;20692;-87
2023/05/09 04:00:00;;;;;;;25.33;8.70;;;5.00;99.90;;;;;;5013861;28;20235;-87
2023/05/09 04:02:26;;;;;;;32.07;12.40;;;3.80;99.90;;;;;;5013659;28;20527;-87
2023/05/09 04:04:52;;;;;;;31.23;11.90;;;;;;;;;;5012653;28;20627;-88
2023/05/09 04:07:19;;;;;;;27.00;11.53;;;3.60;99.90;;;;;;4996582;28;20185;-88
2023/05/09 04:09:45;;;;;;;34.57;12.23;;;5.30;99.90;;;;;;5012762;28;20189;-86
2023/05/09 04:12:11;;;;;;;26.17;12.33;;;3.80;99.90;;;;;;5012104;28;20184;-86
2023/05/09 04:14:37;;;;;;;26.80;10.60;;;3.90;99.90;;;;;;5011882;28;20184;-86
2023/05/09 04:17:03;;;;;;;29.93;12.47;;;4.10;99.90;;;;;;5013433;28;20185;-87
2023/05/09 04:19:30;;;;;;;28.50;11.00;;;4.20;99.90;;;;;;5011882;28;20678;-86
2023/05/09 04:21:56;;;;;;;32.87;14.93;;;4.40;99.90;;;;;;5012018;28;20174;-87
2023/05/09 04:24:21;;;;;;;28.77;13.67;;;4.50;99.90;;;;;;5011837;28;20515;-86
2023/05/09 04:26:47;;;;;;;29.87;13.80;;;4.70;99.90;;;;;;5013057;28;20187;-86
2023/05/09 04:29:13;;;;;;;25.97;12.87;;;4.80;99.90;;;;;;5012449;28;20197;-86
2023/05/09 04:31:38;;;;;;;32.87;14.57;;;4.90;99.90;;;;;;5044620;28;20209;-86
2023/05/09 04:34:04;;;;;;;31.67;13.57;;;5.60;99.90;;;;;;5043817;28;20181;-86
2023/05/09 04:36:32;;;;;;;34.20;15.47;;;5.10;99.90;;;;;;5012568;28;20234;-86
2023/05/09 04:38:58;;;;;;;37.93;13.80;;;5.20;99.90;;;;;;5012903;28;20205;-85
2023/05/09 04:41:24;;;;;;;31.90;13.80;;;5.40;99.90;;;;;;5012670;28;20547;-86
2023/05/09 04:43:50;;;;;;;35.77;13.03;;;5.60;99.90;;;;;;5011561;28;20544;-86
2023/05/09 04:46:17;;;;;;;31.30;12.17;;;5.70;99.90;;;;;;5044478;28;20192;-86
2023/05/09 04:48:43;;;;;;;33.67;13.63;;;5.90;99.90;;;;;;5044438;28;20193;-87
2023/05/09 04:51:09;;;;;;;27.27;13.07;;;6.00;99.90;;;;;;5012506;28;20200;-86
2023/05/09 04:53:35;;;;;;;28.03;12.80;;;6.20;99.90;;;;;;5010969;28;20646;-86
2023/05/09 04:56:01;;;;;;;33.50;14.50;;;6.30;99.90;;;;;;5011275;28;20191;-86
2023/05/09 04:58:27;;;;;;;25.20;12.30;;;6.50;99.90;;;;;;5010660;28;20229;-85
2023/05/09 05:00:52;;;;;;;22.97;11.90;;;6.60;99.90;;;;;;5011239;28;20224;-86
2023/05/09 05:03:18;;;;;;;24.33;11.63;;;6.80;99.90;;;;;;5010944;28;20219;-86
2023/05/09 05:05:44;;;;;;;28.77;12.30;;;7.00;99.90;;;;;;5045055;28;20188;-86
2023/05/09 05:08:11;;;;;;;30.93;13.03;;;7.10;99.90;;;;;;5012358;28;20181;-86
2023/05/09 05:10:36;;;;;;;22.50;11.47;;;7.30;99.90;;;;;;5028258;28;20283;-85
2023/05/09 05:13:02;;;;;;;28.20;10.23;;;7.40;99.90;;;;;;5009177;28;20275;-85
2023/05/09 05:15:27;;;;;;;17.87;9.17;;;7.60;99.90;;;;;;4994950;28;20573;-86
2023/05/09 05:17:53;;;;;;;27.83;9.60;;;7.80;99.90;;;;;;5009879;28;20189;-87
2023/05/09 05:20:20;;;;;;;19.83;8.50;;;7.90;99.90;;;;;;5009370;28;20185;-87
2023/05/09 05:22:46;;;;;;;19.27;6.93;;;;;;;;;;4989880;28;20651;-87
2023/05/09 05:25:12;;;;;;;15.30;6.40;;;8.20;99.90;;;;;;5001333;28;20181;-86
2023/05/09 05:27:37;;;;;;;9.07;4.83;;;8.30;99.90;;;;;;5026658;28;20192;-87
2023/05/09 05:30:03;;;;;;;9.50;4.27;;;8.40;99.90;;;;;;4994527;28;20194;-87
2023/05/09 05:32:31;;;;;;;8.03;4.53;;;8.50;99.90;;;;;;5009850;28;20216;-87
2023/05/09 05:34:56;;;;;;;7.93;4.10;;;8.70;99.90;;;;;;5011824;28;20715;-87
2023/05/09 05:37:22;;;;;;;7.50;3.43;;;8.80;99.90;;;;;;5009603;28;20232;-87
2023/05/09 05:39:48;;;;;;;8.93;3.33;;;8.90;99.90;;;;;;5010158;28;20221;-88
2023/05/09 05:42:13;;;;;;;10.53;4.80;;;9.00;99.90;;;;;;5007385;28;20250;-88
2023/05/09 05:44:39;;;;;;;10.52;5.13;;;9.20;99.90;;;;;;5013846;28;20681;-87
2023/05/09 05:47:05;;;;;;;7.75;4.32;;;9.20;99.90;;;;;;4997354;28;20192;-86
2023/05/09 05:49:30;;;;;;;7.00;3.80;;;9.40;99.90;;;;;;5013984;28;20193;-84
2023/05/09 05:51:56;;;;;;;6.07;3.23;;;;;;;;;;5014638;28;20196;-87
2023/05/09 05:54:22;;;;;;;7.83;3.87;;;9.50;99.90;;;;;;5013317;28;20331;-87
2023/05/09 05:56:47;;;;;;;7.82;4.05;;;9.60;99.90;;;;;;5007016;28;20287;-86
2023/05/09 05:59:13;;;;;;;8.53;4.23;;;9.60;99.90;;;;;;5014546;28;20220;-86
2023/05/09 06:01:39;;;;;;;16.50;5.10;;;9.70;99.90;;;;;;5014638;28;20193;-84
2023/05/09 06:04:06;;;;;;;9.25;4.35;;;9.80;99.90;;;;;;5019709;28;20193;-87
2023/05/09 06:06:33;;;;;;;5.47;3.55;;;9.90;99.90;;;;;;4992489;28;20551;-87
2023/05/09 06:08:58;;;;;;;7.87;4.30;;;9.90;99.90;;;;;;4993271;28;20190;-87
2023/05/09 06:11:24;;;;;;;7.60;3.65;;;9.90;99.90;;;;;;5012665;28;20243;-87
2023/05/09 06:13:49;;;;;;;7.20;4.40;;;10.00;99.70;;;;;;5011310;28;20185;-87
2023/05/09 06:16:15;;;;;;;10.98;4.35;;;10.10;99.00;;;;;;5027354;28;20189;-87
2023/05/09 06:18:41;;;;;;;10.00;3.65;;;10.20;98.10;;;;;;5011134;28;20571;-87
2023/05/09 06:21:06;;;;;;;5.63;3.58;;;10.30;96.80;;;;;;5012001;28;20200;-86
2023/05/09 06:23:32;;;;;;;8.40;3.70;;;10.40;96.30;;;;;;5012798;28;20189;-88
2023/05/09 06:25:58;;;;;;;10.57;3.92;;;10.60;96.10;;;;;;5011792;28;20193;-88
2023/05/09 06:28:23;;;;;;;7.30;3.58;;;10.70;95.50;;;;;;5011691;28;20197;-88
2023/05/09 06:30:49;;;;;;;6.93;3.53;;;10.90;94.50;;;;;;5023236;28;20193;-86
2023/05/09 06:33:15;;;;;;;9.05;3.85;;;10.90;93.70;;;;;;5019426;28;20271;-86
2023/05/09 06:35:41;;;;;;;5.47;3.85;;;11.00;92.90;;;;;;5016688;28;20677;-86
2023/05/09 06:38:07;;;;;;;4.65;3.08;;;11.00;92.90;;;;;;5025952;28;20236;-86
2023/05/09 06:40:32;;;;;;;6.25;3.63;;;11.10;92.00;;;;;;5016942;28;20189;-86
2023/05/09 06:42:58;;;;;;;10.10;3.67;;;11.20;92.30;;;;;;5012003;28;20260;-86
2023/05/09 06:45:25;;;;;;;5.85;3.75;;;;;;;;;;5028412;28;20601;-88
2023/05/09 06:47:50;;;;;;;5.10;3.58;;;11.40;90.70;;;;;;5012008;28;20216;-88
2023/05/09 06:50:16;;;;;;;11.55;3.85;;;11.60;91.00;;;;;;5015125;28;20236;-87
2023/05/09 06:52:42;;;;;;;6.18;3.63;;;11.60;91.20;;;;;;4994772;28;20189;-86
2023/05/09 06:55:08;;;;;;;7.55;3.50;;;11.70;90.10;;;;;;5012548;28;20196;-87
2023/05/09 06:57:34;;;;;;;7.10;3.65;;;11.80;90.70;;;;;;5032306;28;20276;-87
2023/05/09 07:00:00;;;;;;;6.05;3.33;;;11.90;91.30;;;;;;5013258;28;20280;-87
2023/05/09 07:02:26;;;;;;;5.03;2.60;;;;;;;;;;5028144;28;20880;-87
2023/05/09 07:04:51;;;;;;;9.57;3.53;;;12.10;84.60;;;;;;5016312;28;20192;-87
2023/05/09 07:07:17;;;;;;;5.75;3.00;;;12.10;86.00;;;;;;5044300;28;20642;-87
2023/05/09 07:09:42;;;;;;;5.93;3.47;;;12.20;86.00;;;;;;5012498;28;20196;-89
2023/05/09 07:12:08;;;;;;;8.45;3.33;;;12.30;85.90;;;;;;5015101;28;20259;-89
2023/05/09 07:14:34;;;;;;;4.35;2.90;;;12.40;85.80;;;;;;5009998;28;20661;-90
2023/05/09 07:16:59;;;;;;;3.85;3.05;;;12.50;85.60;;;;;;4994823;28;20189;-89
2023/05/09 07:19:25;;;;;;;7.10;2.95;;;12.50;82.30;;;;;;5044523;28;20662;-87
2023/05/09 07:21:51;;;;;;;3.53;2.42;;;12.60;80.70;;;;;;5011586;28;20189;-88
2023/05/09 07:24:17;;;;;;;6.05;2.45;;;12.70;81.30;;;;;;5011925;28;20227;-87
2023/05/09 07:26:42;;;;;;;7.15;2.97;;;12.80;80.60;;;;;;5011052;28;20199;-88
2023/05/09 07:29:08;;;;;;;4.55;2.63;;;13.00;80.80;;;;;;5011624;28;20196;-88
2023/05/09 07:31:34;;;;;;;3.30;2.42;;;13.00;76.00;;;;;;5012398;28;20197;-88
2023/05/09 07:33:59;;;;;;;4.22;2.15;;;13.20;77.70;;;;;;5009464;28;21457;-88
2023/05/09 07:36:25;;;;;;;4.03;2.55;;;;;;;;;;4999408;28;20274;-88
2023/05/09 07:38:52;;;;;;;2.28;1.95;;;13.30;73.90;;;;;;5012781;28;20220;-88
2023/05/09 07:41:18;;;;;;;4.78;2.30;;;13.40;74.70;;;;;;5013331;28;20181;-88
2023/05/09 07:43:44;;;;;;;3.90;2.10;;;13.40;74.70;;;;;;5013160;28;20189;-88
2023/05/09 07:46:09;;;;;;;3.42;2.30;;;13.50;74.10;;;;;;5012806;28;20585;-88
2023/05/09 07:48:35;;;;;;;5.03;2.28;;;13.60;70.30;;;;;;5012711;28;20552;-88
2023/05/09 07:51:01;;;;;;;3.17;2.00;;;13.60;67.10;;;;;;5014646;28;20177;-89
2023/05/09 07:53:27;;;;;;;2.03;1.67;;;13.60;69.00;;;;;;5015372;28;20185;-87
2023/05/09 07:55:52;;;;;;;4.00;2.55;;;13.60;68.60;;;;;;4996925;28;20173;-88
2023/05/09 07:58:18;;;;;;;2.33;1.83;;;13.70;68.10;;;;;;5015077;28;20270;-87
2023/05/09 08:00:44;;;;;;;2.45;1.73;;;13.80;66.10;;;;;;5017186;28;20216;-88
2023/05/09 08:03:09;;;;;;;7.47;1.85;;;13.90;64.50;;;;;;5013547;28;20196;-87
2023/05/09 08:05:35;;;;;;;2.42;1.65;;;13.90;66.00;;;;;;5018226;28;20184;-85
2023/05/09 08:08:01;;;;;;;7.45;3.17;;;14.20;65.80;;;;;;5028747;28;20182;-85
2023/05/09 08:10:29;;;;;;;4.22;2.20;;;14.40;78.20;;;;;;5064215;28;20188;-87
2023/05/09 08:12:55;;;;;;;2.58;1.77;;;14.70;68.30;;;;;;5037490;28;20227;-86
2023/05/09 08:15:22;;;;;;;2.90;1.98;;;14.60;58.00;;;;;;5036714;28;20162;-87
2023/05/09 08:17:47;;;;;;;2.15;1.50;;;14.50;55.30;;;;;;5037935;28;20177;-87
2023/05/09 08:20:13;;;;;;;1.42;1.33;;;14.50;55.00;;;;;;5037292;28;20200;-87
2023/05/09 08:22:39;;;;;;;4.57;1.77;;;14.40;53.20;;;;;;5038047;28;20169;-87
2023/05/09 08:25:06;;;;;;;3.58;1.58;;;14.40;55.40;;;;;;5037807;28;20165;-87
2023/05/09 08:27:32;;;;;;;2.85;2.20;;;14.40;56.80;;;;;;5037461;28;20173;-88
2023/05/09 08:29:58;;;;;;;1.65;1.48;;;14.40;56.80;;;;;;5019392;28;20188;-87
2023/05/09 08:32:24;;;;;;;2.75;1.70;;;14.70;55.70;;;;;;5036190;28;20240;-87
2023/05/09 08:34:49;;;;;;;1.58;1.48;;;14.70;54.20;;;;;;5069347;28;20164;-88
2023/05/09 08:37:15;;;;;;;3.65;1.63;;;14.60;52.30;;;;;;5031106;28;20228;-89
2023/05/09 08:39:41;;;;;;;1.98;1.70;;;14.60;52.20;;;;;;5011464;28;20562;-88
2023/05/09 08:42:08;;;;;;;3.17;1.42;;;14.60;53.20;;;;;;5012040;28;20186;-89
2023/05/09 08:44:34;;;;;;;3.55;2.13;;;14.60;54.00;;;;;;5011804;28;20716;-89
2023/05/09 08:47:03;;;;;;;3.42;1.60;;;14.60;52.30;;;;;;5012950;28;20315;-89
2023/05/09 08:49:29;;;;;;;3.13;1.58;;;14.70;53.40;;;;;;5017684;28;20181;-88
2023/05/09 08:51:56;;;;;;;2.08;1.70;;;14.90;53.90;;;;;;5012635;28;20184;-89
2023/05/09 08:54:23;;;;;;;3.92;1.40;;;15.10;53.00;;;;;;4995853;28;20173;-88
2023/05/09 08:56:49;;;;;;;21.23;2.97;;;15.30;51.40;;;;;;5013171;28;20185;-88
2023/05/09 08:59:17;;;;;;;1.85;1.40;;;15.40;51.70;;;;;;5014568;28;20232;-88
2023/05/09 09:01:43;;;;;;;4.38;1.58;;;15.30;50.50;;;;;;5011637;28;20216;-88
2023/05/09 09:04:10;;;;;;;8.95;2.10;;;15.30;52.40;;;;;;5012947;28;20169;-87
2023/05/09 09:06:38;;;;;;;4.05;2.17;;;15.40;51.30;;;;;;5013400;28;20189;-88
2023/05/09 09:09:06;;;;;;;1.58;1.48;;;15.30;50.80;;;;;;5011389;28;20193;-88
2023/05/09 09:11:33;;;;;;;1.88;1.55;;;14.90;49.90;;;;;;5046225;28;20276;-88
2023/05/09 09:14:02;;;;;;;1.80;1.58;;;14.90;53.50;;;;;;5012437;28;20185;-86
2023/05/09 09:16:28;;;;;;;2.25;1.65;;;15.10;52.20;;;;;;5013213;28;20181;-88
2023/05/09 09:18:55;;;;;;;2.08;1.65;;;15.20;50.80;;;;;;5012209;28;20245;-87
2023/05/09 09:21:22;;;;;;;1.90;1.40;;;15.30;51.00;;;;;;5016125;28;20182;-87
2023/05/09 09:23:49;;;;;;;2.05;1.20;;;15.40;51.80;;;;;;4998855;28;20177;-87
2023/05/09 09:26:15;;;;;;;1.30;1.20;;;15.60;51.50;;;;;;5016129;28;20181;-88
2023/05/09 09:28:41;;;;;;;1.42;1.10;;;15.80;51.40;;;;;;5014495;28;20207;-87
2023/05/09 09:31:30;;;;;;;1.92;1.42;;;15.90;49.90;;;;;;5015150;28;20673;-88
2023/05/09 09:34:00;;;;;;;1.95;1.58;;;16.00;50.90;;;;;;5014439;28;20248;-87
2023/05/09 09:36:27;;;;;;;1.30;1.05;;;16.20;48.80;;;;;;5017191;28;20182;-88
2023/05/09 09:39:03;;;;;;;2.40;1.35;;;16.40;50.90;;;;;;5015005;28;20830;-87
2023/05/09 09:41:34;;;;;;;1.58;1.20;;;16.70;48.10;;;;;;5016726;28;20176;-88
2023/05/09 09:44:09;;;;;;;1.80;1.25;;;16.60;49.00;;;;;;5016274;28;20173;-88
2023/05/09 09:46:42;;;;;;;1.55;1.35;;;16.50;47.80;;;;;;5048635;28;20184;-88
2023/05/09 09:49:09;;;;;;;3.30;1.40;;;16.50;48.20;;;;;;5048287;28;20626;-87
2023/05/09 09:51:35;;;;;;;1.98;1.55;;;16.30;48.40;;;;;;5032091;28;20323;-87
2023/05/09 09:54:03;;;;;;;4.32;1.75;;;16.40;48.60;;;;;;5015637;28;20212;-88
2023/05/09 09:56:43;;;;;;;2.20;1.60;;;16.50;51.00;;;;;;5017015;28;20180;-88
2023/05/09 09:59:17;;;;;;;4.55;1.80;;;16.70;49.00;;;;;;5051259;28;20678;-88
2023/05/09 10:02:03;;;;;;;4.78;2.00;;;16.60;48.20;;;;;;5048845;28;20188;-88
2023/05/09 10:04:30;;;;;;;1.50;1.30;;;16.60;48.20;;;;;;5017397;28;20157;-89
2023/05/09 10:06:58;;;;;;;1.67;1.38;;;16.50;48.00;;;;;;5016684;28;20173;-90
2023/05/09 10:09:25;;;;;;;3.22;1.40;;;15.60;46.00;;;;;;5016664;28;20178;-90
2023/05/09 10:11:52;;;;;;;1.33;1.23;;;16.50;48.50;;;;;;5015824;28;20229;-89
2023/05/09 10:14:20;;;;;;;2.55;1.85;;;16.40;48.70;;;;;;5048134;28;20181;-87
2023/05/09 10:16:54;;;;;;;2.30;1.80;;;16.60;49.60;;;;;;5033050;28;20185;-89
2023/05/09 10:19:21;;;;;;;2.13;1.65;;;16.30;51.00;;;;;;5049604;28;20205;-88
2023/05/09 10:22:01;;;;;;;2.90;1.90;;;16.90;49.20;;;;;;5016918;28;20177;-88
2023/05/09 10:24:40;;;;;;;3.03;1.75;;;17.00;49.80;;;;;;5016679;28;20201;-89
2023/05/09 10:27:10;;;;;;;3.35;1.50;;;17.00;49.00;;;;;;5014854;28;20193;-87
2023/05/09 10:30:05;;;;;;;4.00;1.33;;;17.00;49.50;;;;;;5047831;28;20181;-88
2023/05/09 10:32:53;;;;;;;2.65;1.30;;;17.30;48.80;;;;;;4998692;28;20192;-89
2023/05/09 10:35:25;;;;;;;2.05;1.52;;;17.30;48.50;;;;;;5049716;28;20189;-89
2023/05/09 10:37:53;;;;;;;2.35;1.52;;;17.50;48.50;;;;;;5060097;28;20236;-89
2023/05/09 10:40:19;;;;;;;3.58;1.75;;;17.50;47.00;;;;;;5024624;28;20673;-87
2023/05/09 10:42:45;;;;;;;2.65;1.70;;;17.40;46.00;;;;;;5058553;28;20184;-88
2023/05/09 10:45:12;;;;;;;4.80;1.83;;;17.40;48.20;;;;;;5058442;28;20635;-87
2023/05/09 10:47:42;;;;;;;2.50;1.55;;;17.60;46.60;;;;;;5032993;28;20174;-87
2023/05/09 10:50:11;;;;;;;1.50;1.38;;;17.50;46.60;;;;;;5031967;28;20177;-88
2023/05/09 10:53:17;;;;;;;1.88;1.58;;;17.40;45.90;;;;;;5032645;28;20169;-87
2023/05/09 10:55:46;;;;;;;1.98;1.40;;;17.30;45.80;;;;;;5017018;28;20162;-86
2023/05/09 10:58:29;;;;;;;3.40;2.10;;;17.20;46.90;;;;;;5048138;28;20192;-87
2023/05/09 11:00:56;;;;;;;2.55;1.70;;;17.30;48.20;;;;;;5016664;28;20252;-87
2023/05/09 11:03:23;;;;;;;1.52;1.20;;;17.30;47.10;;;;;;5052989;28;20181;-86
2023/05/09 11:05:52;;;;;;;2.13;1.77;;;17.50;47.50;;;;;;5026066;28;20547;-86
2023/05/09 11:08:22;;;;;;;1.42;1.20;;;17.60;45.80;;;;;;5026728;28;20208;-86
2023/05/09 11:10:48;;;;;;;4.13;1.77;;;17.60;45.90;;;;;;5058473;28;20173;-86
2023/05/09 11:13:22;;;;;;;2.72;1.20;;;17.70;49.30;;;;;;5024793;28;20200;-87
2023/05/09 11:16:03;;;;;;;3.10;1.60;;;17.90;46.10;;;;;;5035897;28;20145;-86
2023/05/09 11:18:30;;;;;;;4.18;1.52;;;17.80;47.00;;;;;;5036469;28;20200;-87
2023/05/09 11:20:57;;;;;;;2.03;1.58;;;17.80;46.90;;;;;;5070669;28;20205;-87
2023/05/09 11:23:28;;;;;;;3.20;1.40;;;17.80;46.10;;;;;;5036650;28;20180;-87
2023/05/09 11:26:06;;;;;;;2.38;1.75;;;17.90;49.00;;;;;;5030815;28;20327;-88
2023/05/09 11:28:37;;;;;;;1.83;1.60;;;17.80;46.50;;;;;;5033928;28;20157;-87
2023/05/09 11:31:16;;;;;;;1.83;1.60;;;17.50;48.50;;;;;;5032786;28;20156;-86
2023/05/09 11:33:45;;;;;;;1.92;1.30;;;17.60;46.10;;;;;;5046881;28;20244;-86
2023/05/09 11:36:18;;;;;;;2.85;1.60;;;17.60;46.70;;;;;;5031309;28;20183;-85
2023/05/09 11:38:47;;;;;;;2.13;1.30;;;17.80;47.10;;;;;;5060048;28;20645;-86
2023/05/09 11:41:14;;;;;;;2.10;1.33;;;17.80;47.60;;;;;;5030154;28;20185;-86
2023/05/09 11:43:41;;;;;;;1.75;1.17;;;18.00;46.20;;;;;;5012809;28;20200;-86
2023/05/09 11:46:07;;;;;;;1.90;1.40;;;18.00;44.70;;;;;;5050071;28;20181;-87
2023/05/09 11:48:41;;;;;;;2.92;1.23;;;18.10;45.70;;;;;;5030031;28;20189;-87
2023/05/09 11:51:06;;;;;;;2.13;1.92;;;17.50;43.40;;;;;;5046355;28;20177;-87
2023/05/09 11:53:32;;;;;;;1.95;1.50;;;17.50;45.90;;;;;;5014394;28;20235;-87
2023/05/09 11:56:02;;;;;;;2.97;1.70;;;17.60;46.80;;;;;;5015683;28;20186;-85
2023/05/09 11:58:28;;;;;;;1.50;1.30;;;18.00;47.00;;;;;;5047927;28;20209;-86
2023/05/09 12:00:54;;;;;;;2.58;1.33;;;18.20;44.70;;;;;;5013942;28;20192;-86
2023/05/09 12:03:19;;;;;;;1.95;1.10;;;18.10;47.00;;;;;;5012791;28;20541;-86
2023/05/09 12:05:47;;;;;;;2.58;1.70;;;18.20;46.20;;;;;;5030152;28;20537;-86
2023/05/09 12:08:14;;;;;;;2.22;1.77;;;18.20;44.90;;;;;;5046290;28;20610;-86
2023/05/09 12:10:40;;;;;;;3.00;1.42;;;18.30;45.30;;;;;;5013149;28;20221;-87
2023/05/09 12:13:05;;;;;;;1.75;1.25;;;18.50;46.20;;;;;;5014550;28;20537;-86
2023/05/09 12:15:37;;;;;;;1.58;1.38;;;18.40;44.40;;;;;;5029773;28;20181;-85
2023/05/09 12:18:05;;;;;;;1.20;1.08;;;18.20;43.90;;;;;;5013557;28;20182;-86
2023/05/09 12:20:46;;;;;;;2.35;1.67;;;18.10;44.60;;;;;;5014765;28;20189;-86
2023/05/09 12:23:14;;;;;;;2.35;1.58;;;18.20;47.30;;;;;;5014581;28;20672;-87
2023/05/09 12:25:55;;;;;;;3.22;2.13;;;18.40;45.20;;;;;;5013271;28;20657;-86
2023/05/09 12:28:25;;;;;;;7.10;3.22;;;18.30;44.60;;;;;;5016097;28;20614;-85
2023/05/09 12:30:52;;;;;;;3.85;1.65;;;18.40;45.50;;;;;;5015705;28;20196;-86
2023/05/09 12:33:18;;;;;;;2.53;1.42;;;18.40;42.70;;;;;;5017152;28;20244;-86
2023/05/09 12:36:09;;;;;;;1.00;1.00;;;18.50;45.50;;;;;;5017896;28;20548;-85
2023/05/09 12:38:36;;;;;;;2.40;1.50;;;18.60;43.80;;;;;;4991502;28;20252;-86
2023/05/09 12:41:02;;;;;;;3.83;1.65;;;18.60;43.40;;;;;;5048790;28;20250;-85
2023/05/09 12:43:36;;;;;;;3.63;1.25;;;18.60;43.40;;;;;;5016353;28;20185;-85
2023/05/09 12:46:03;;;;;;;3.40;1.70;;;18.50;41.80;;;;;;5016765;28;20181;-85
2023/05/09 12:48:33;;;;;;;3.42;1.20;;;18.40;44.10;;;;;;4996759;28;20189;-85
2023/05/09 12:51:02;;;;;;;1.40;1.23;;;18.30;41.30;;;;;;5014235;28;20248;-85
2023/05/09 12:53:31;;;;;;;1.17;1.00;;;18.50;43.10;;;;;;5044729;28;20192;-85